Time;durP1;ratioP1;P1;durP2;ratioP2;P2;SDS_P1;SDS_P2;PMS_P1;PMS_P2;Temp;Humidity;BMP_temperature;BMP_pressure;BME280_temperature;BME280_humidity;BME280_pressure;Samples;Min_cycle;Max_cycle;Signal;HPM_P1;HPM_P2
2023/03/22 07:10:36;;;;;;;6.53;2.15;;;;;;;10.69;66.64;96291.06;2100627;27;20559;-59
2023/03/22 07:11:37;;;;;;;5.43;1.70;;;;;;;10.74;66.86;96279.50;2094557;28;20347;-59
2023/03/22 07:12:39;;;;;;;3.67;1.83;;;;;;;10.87;66.26;96297.97;2095247;28;20200;-59
2023/03/22 07:13:41;;;;;;;10.05;2.40;;;;;;;11.16;65.26;96298.25;2094239;28;20291;-60
2023/03/22 07:14:42;;;;;;;7.35;2.08;;;;;;;11.22;64.93;96297.06;2084535;28;20231;-61
2023/03/22 07:15:43;;;;;;;5.50;2.10;;;;;;;11.22;65.19;96297.94;2077587;28;20212;-61
2023/03/22 07:16:45;;;;;;;7.05;2.15;;;;;;;11.16;65.33;96294.78;2078190;28;20197;-60
2023/03/22 07:17:47;;;;;;;3.78;1.67;;;;;;;11.63;64.09;96299.25;2080308;28;20563;-61
2023/03/22 07:18:48;;;;;;;5.07;1.98;;;;;;;11.64;63.31;96295.69;2076905;28;20198;-61
2023/03/22 07:19:49;;;;;;;2.38;1.70;;;;;;;11.54;64.13;96299.72;2073485;28;20225;-61
2023/03/22 07:20:51;;;;;;;6.50;2.10;;;;;;;11.64;63.59;96297.47;2069122;28;20199;-61
2023/03/22 07:21:52;;;;;;;6.30;1.58;;;;;;;11.69;63.13;96298.06;2072077;28;20209;-60
2023/03/22 07:22:54;;;;;;;7.38;1.30;;;;;;;11.83;62.97;96294.69;2071346;28;20818;-61
2023/03/22 07:23:55;;;;;;;6.90;2.50;;;;;;;11.71;63.08;96301.44;2069333;28;20422;-61
2023/03/22 07:24:57;;;;;;;4.80;1.73;;;;;;;11.86;62.96;96294.50;2072325;28;20256;-61
2023/03/22 07:26:02;;;;;;;4.05;2.10;;;;;;;12.28;62.24;96302.69;2070274;28;20755;-59
2023/03/22 07:27:03;;;;;;;3.22;1.75;;;;;;;12.48;61.80;96299.78;2069233;28;20669;-61
2023/03/22 07:28:05;;;;;;;2.95;1.40;;;;;;;12.14;61.27;96295.59;2071679;28;20209;-61
2023/03/22 07:29:07;;;;;;;7.55;1.80;;;;;;;12.29;61.45;96300.00;2070681;28;20204;-61
2023/03/22 07:30:09;;;;;;;3.85;1.73;;;;;;;12.43;61.32;96293.09;2069345;28;20230;-61
2023/03/22 07:31:14;;;;;;;4.70;1.95;;;;;;;12.33;61.79;96293.66;2071854;28;20195;-61
2023/03/22 07:32:16;;;;;;;8.73;2.05;;;;;;;12.65;60.57;96298.78;2070164;28;20218;-61
2023/03/22 07:33:17;;;;;;;4.47;1.55;;;;;;;12.84;59.95;96290.69;2070703;28;20269;-61
2023/03/22 07:34:19;;;;;;;3.05;1.33;;;;;;;12.94;59.76;96300.63;2072607;28;20205;-61
2023/03/22 07:35:20;;;;;;;6.90;2.17;;;;;;;12.87;59.88;96302.75;2069360;28;20226;-61
2023/03/22 07:36:24;;;;;;;6.43;2.42;;;;;;;12.96;60.02;96304.81;2068241;28;20402;-61
2023/03/22 07:37:25;;;;;;;3.15;1.80;;;;;;;13.12;58.69;96302.13;2067830;28;20238;-60
2023/03/22 07:38:27;;;;;;;6.45;1.77;;;;;;;13.25;58.92;96306.66;2068716;28;20229;-61
2023/03/22 07:39:29;;;;;;;6.45;2.40;;;;;;;13.16;59.23;96306.25;2070989;28;20201;-61
2023/03/22 07:40:31;;;;;;;4.95;1.90;;;;;;;13.13;58.83;96298.59;2067472;28;20190;-61
2023/03/22 07:41:32;;;;;;;4.15;1.75;;;;;;;13.06;59.23;96300.75;2066550;28;20209;-61
2023/03/22 07:42:33;;;;;;;5.07;1.90;;;;;;;13.21;58.37;96300.75;2070953;28;20206;-60
2023/03/22 07:43:35;;;;;;;3.10;1.65;;;;;;;13.25;58.07;96296.16;2069767;28;20227;-60
2023/03/22 07:44:52;;;;;;;5.28;1.90;;;;;;;13.10;58.99;96306.63;2070403;28;20658;-60
2023/03/22 07:45:54;;;;;;;4.70;1.80;;;;;;;13.27;58.53;96287.25;2071430;28;20902;-61
2023/03/22 07:46:56;;;;;;;9.88;1.77;;;;;;;13.41;57.67;96289.06;2072983;28;20550;-61
2023/03/22 07:47:57;;;;;;;8.02;1.80;;;;;;;13.66;58.07;96303.28;2067589;28;20207;-60
2023/03/22 07:48:59;;;;;;;6.60;1.90;;;;;;;13.63;57.71;96299.06;2066070;28;20286;-61
2023/03/22 07:50:01;;;;;;;5.95;1.27;;;;;;;13.11;58.83;96308.31;2071799;28;20256;-60
2023/03/22 07:51:03;;;;;;;2.70;1.38;;;;;;;13.16;58.74;96303.63;2073279;28;20205;-60
2023/03/22 07:52:04;;;;;;;5.60;1.50;;;;;;;12.88;59.50;96296.59;2071875;28;20241;-61
2023/03/22 07:53:05;;;;;;;4.07;1.50;;;;;;;12.99;59.30;96296.78;2073204;28;20237;-60
2023/03/22 07:54:07;;;;;;;4.30;1.92;;;;;;;13.15;58.97;96293.25;2071530;28;20209;-60
2023/03/22 07:55:10;;;;;;;5.45;1.55;;;;;;;13.38;58.43;96297.09;2070556;28;20904;-60
2023/03/22 07:56:11;;;;;;;9.95;2.20;;;;;;;13.16;58.84;96302.81;2068603;28;20249;-60
2023/03/22 07:57:13;;;;;;;5.18;1.50;;;;;;;13.51;58.48;96291.94;2074399;28;20202;-60
2023/03/22 07:58:15;;;;;;;7.32;2.33;;;;;;;13.49;58.43;96292.03;2068190;28;20198;-60
2023/03/22 07:59:16;;;;;;;7.15;1.48;;;;;;;13.43;58.68;96273.22;2070057;28;20193;-61
2023/03/22 08:00:18;;;;;;;4.13;1.20;;;;;;;14.27;56.67;96290.66;2071634;28;20198;-60
2023/03/22 08:01:20;;;;;;;4.00;1.50;;;;;;;13.94;57.36;96305.03;2070150;28;20709;-60
2023/03/22 08:02:22;;;;;;;9.38;1.95;;;;;;;14.17;57.36;96297.41;2067947;28;20213;-60
2023/03/22 08:03:24;;;;;;;6.43;1.63;;;;;;;14.19;57.17;96296.41;2073518;28;20206;-60
2023/03/22 08:04:26;;;;;;;10.30;1.40;;;;;;;14.50;56.41;96291.75;2068830;28;20289;-60
2023/03/22 08:05:28;;;;;;;3.40;1.20;;;;;;;14.82;55.85;96293.22;2070049;28;20285;-60
2023/03/22 08:06:31;;;;;;;3.65;1.33;;;;;;;14.41;55.38;96296.78;2068403;28;20282;-60
2023/03/22 08:07:32;;;;;;;5.60;1.85;;;;;;;13.95;56.70;96290.09;2067216;28;20282;-60
2023/03/22 08:08:35;;;;;;;5.95;1.83;;;;;;;14.09;56.87;96294.47;2066622;28;20207;-60
2023/03/22 08:09:37;;;;;;;1.65;1.05;;;;;;;14.31;56.38;96297.38;2069946;28;20222;-60
2023/03/22 08:10:39;;;;;;;3.35;1.48;;;;;;;14.54;55.69;96290.63;2068788;28;20210;-60
2023/03/22 08:11:40;;;;;;;8.13;1.05;;;;;;;14.72;55.44;96298.25;2072062;28;20198;-60
2023/03/22 08:12:42;;;;;;;5.20;1.30;;;;;;;15.06;54.51;96293.34;2074152;28;20254;-60
2023/03/22 08:13:44;;;;;;;2.25;1.30;;;;;;;15.21;54.20;96298.50;2075555;28;20213;-60
2023/03/22 08:14:49;;;;;;;2.92;1.50;;;;;;;15.00;54.66;96291.97;2069389;28;20225;-60
2023/03/22 08:15:50;;;;;;;5.07;1.50;;;;;;;15.22;54.24;96289.66;2075498;28;20755;-60
2023/03/22 08:16:52;;;;;;;7.93;1.48;;;;;;;14.73;54.23;96257.91;2070857;28;20787;-60
2023/03/22 08:17:57;;;;;;;3.88;1.40;;;;;;;14.61;54.78;96291.03;2067817;28;20202;-60
2023/03/22 08:18:59;;;;;;;5.60;1.00;;;;;;;14.89;54.47;96293.66;2069311;28;20669;-60
2023/03/22 08:20:07;;;;;;;5.68;1.55;;;;;;;15.48;53.69;96295.75;2071477;28;20291;-60
2023/03/22 08:21:09;;;;;;;3.65;1.30;;;;;;;15.27;53.51;96300.72;2069543;28;20249;-60
2023/03/22 08:22:12;;;;;;;7.53;1.55;;;;;;;15.06;54.36;96303.00;2064141;28;20290;-60
2023/03/22 08:23:15;;;;;;;2.65;1.27;;;;;;;15.10;53.85;96300.06;2062688;28;20203;-60
2023/03/22 08:24:16;;;;;;;5.35;1.10;;;;;;;15.25;53.46;96303.44;2062796;28;20195;-60
2023/03/22 08:25:18;;;;;;;4.13;1.00;;;;;;;15.51;52.74;96301.66;2063566;28;20199;-61
2023/03/22 08:26:21;;;;;;;3.10;1.25;;;;;;;15.43;53.59;96303.13;2063744;28;20199;-60
2023/03/22 08:27:22;;;;;;;4.30;0.90;;;;;;;16.04;52.55;96303.22;2064179;28;20744;-60
2023/03/22 08:28:24;;;;;;;5.80;1.33;;;;;;;15.93;52.11;96292.63;2062475;28;20204;-60
2023/03/22 08:29:26;;;;;;;4.63;1.00;;;;;;;15.89;51.69;96291.16;2063854;28;20831;-60
2023/03/22 08:30:27;;;;;;;4.50;1.00;;;;;;;15.63;52.29;96294.66;2062317;28;20192;-60
2023/03/22 08:31:29;;;;;;;9.70;1.63;;;;;;;15.22;53.20;96297.56;2062779;28;20200;-60
2023/03/22 08:32:32;;;;;;;3.03;1.10;;;;;;;16.40;51.69;96300.66;2059412;28;20187;-60
2023/03/22 08:33:34;;;;;;;2.00;0.98;;;;;;;15.72;52.46;96294.94;2061594;28;20191;-60
2023/03/22 08:34:37;;;;;;;2.63;1.10;;;;;;;16.22;52.12;96290.50;2060168;28;20430;-60
2023/03/22 08:35:39;;;;;;;2.70;1.52;;;;;;;16.30;51.95;96296.06;2063074;28;20288;-60
2023/03/22 08:36:41;;;;;;;2.83;1.17;;;;;;;16.27;50.97;96300.72;2064154;28;20205;-60
2023/03/22 08:37:42;;;;;;;2.13;1.10;;;;;;;16.41;51.50;96292.63;2061757;28;20662;-61
2023/03/22 08:38:44;;;;;;;2.75;1.38;;;;;;;16.26;51.38;96296.38;2059291;28;20555;-60
2023/03/22 08:39:46;;;;;;;2.25;1.00;;;;;;;16.33;51.29;96295.81;2063130;28;20231;-60
2023/03/22 08:40:47;;;;;;;6.40;1.10;;;;;;;16.43;50.85;96289.88;2058938;28;20303;-60
2023/03/22 08:41:49;;;;;;;3.05;1.20;;;;;;;16.66;50.62;96301.34;2058519;28;20199;-60
2023/03/22 08:42:50;;;;;;;4.80;1.13;;;;;;;16.80;50.09;96295.88;2059338;28;20738;-60
2023/03/22 08:43:51;;;;;;;3.15;1.08;;;;;;;16.77;50.30;96295.25;2065906;28;20203;-60
2023/03/22 08:44:53;;;;;;;2.35;0.95;;;;;;;16.73;50.95;96291.19;2060656;28;20694;-60
2023/03/22 08:45:55;;;;;;;3.53;1.30;;;;;;;16.67;51.02;96289.00;2059137;28;20207;-60
2023/03/22 08:46:56;;;;;;;4.80;1.52;;;;;;;16.62;50.66;96295.47;2067381;28;20199;-60
2023/03/22 08:47:58;;;;;;;3.28;1.27;;;;;;;17.00;50.55;96298.00;2065647;28;20230;-60
2023/03/22 08:49:01;;;;;;;3.75;1.30;;;;;;;16.85;50.30;96294.69;2063648;28;20194;-60
2023/03/22 08:50:03;;;;;;;2.55;1.20;;;;;;;16.76;50.38;96294.44;2064484;28;20228;-60
2023/03/22 08:51:05;;;;;;;3.65;1.20;;;;;;;16.24;50.94;96291.25;2064038;28;20226;-61
2023/03/22 08:52:07;;;;;;;2.50;1.25;;;;;;;16.47;50.96;96300.09;2061271;28;20675;-60
2023/03/22 08:53:09;;;;;;;3.08;1.10;;;;;;;16.69;50.86;96302.94;2063189;28;20248;-60
2023/03/22 08:54:11;;;;;;;2.10;0.98;;;;;;;17.07;50.08;96293.94;2065196;28;20713;-61
2023/03/22 08:55:16;;;;;;;2.30;1.05;;;;;;;16.64;50.08;96303.25;2064909;28;20282;-61
2023/03/22 08:56:18;;;;;;;4.05;1.10;;;;;;;16.86;50.15;96289.31;2065608;28;20337;-61
2023/03/22 08:57:21;;;;;;;4.47;0.90;;;;;;;16.91;49.91;96292.47;2064409;28;20609;-60
2023/03/22 08:58:23;;;;;;;2.75;1.30;;;;;;;16.55;50.23;96291.59;2063157;28;20295;-60
2023/03/22 08:59:25;;;;;;;2.55;1.10;;;;;;;16.40;50.69;96292.75;2063736;28;20206;-61
2023/03/22 09:00:26;;;;;;;3.50;1.20;;;;;;;16.30;51.19;96290.78;2062648;28;20206;-60
2023/03/22 09:01:46;;;;;;;5.85;1.30;;;;;;;16.26;51.37;96291.13;2061570;28;20202;-60
2023/03/22 09:02:49;;;;;;;2.22;0.90;;;;;;;16.40;51.94;96284.84;2061959;28;20214;-60
2023/03/22 09:03:50;;;;;;;2.70;1.00;;;;;;;16.08;51.35;96293.31;2062803;28;20678;-60
2023/03/22 09:04:52;;;;;;;3.55;1.10;;;;;;;16.12;52.05;96281.59;2060899;28;20231;-60
2023/03/22 09:05:53;;;;;;;3.28;0.93;;;;;;;16.20;51.46;96289.78;2060445;28;20202;-60
2023/03/22 09:06:55;;;;;;;4.53;0.90;;;;;;;16.43;51.71;96285.47;2059044;28;20208;-60
2023/03/22 09:07:56;;;;;;;4.32;1.10;;;;;;;16.13;52.13;96284.09;2061506;28;20206;-60
2023/03/22 09:09:06;;;;;;;3.33;1.10;;;;;;;15.76;52.40;96284.09;2062971;28;20203;-60
2023/03/22 09:10:08;;;;;;;2.08;1.10;;;;;;;15.50;52.88;96281.53;2059648;28;20239;-60
2023/03/22 09:11:11;;;;;;;3.13;1.23;;;;;;;15.59;53.14;96284.44;2059418;28;20212;-61
2023/03/22 09:12:12;;;;;;;8.05;1.25;;;;;;;15.52;53.63;96287.50;2060805;28;20195;-60
2023/03/22 09:13:15;;;;;;;8.27;1.00;;;;;;;15.68;52.69;96286.47;2062239;28;20206;-60
2023/03/22 09:14:17;;;;;;;3.17;1.25;;;;;;;15.51;53.02;96275.34;2066508;28;20275;-60
2023/03/22 09:15:18;;;;;;;4.53;1.00;;;;;;;15.42;53.42;96283.03;2063814;28;20234;-60
2023/03/22 09:16:20;;;;;;;1.70;0.85;;;;;;;15.17;53.97;96280.31;2063304;28;20249;-59
2023/03/22 09:17:21;;;;;;;2.63;0.90;;;;;;;15.12;53.82;96274.53;2061968;28;20697;-58
2023/03/22 09:18:24;;;;;;;4.90;1.27;;;;;;;15.64;53.36;96280.56;2060689;28;20196;-58
2023/03/22 09:19:25;;;;;;;5.72;1.25;;;;;;;16.13;52.70;96278.84;2061630;28;20199;-58
2023/03/22 09:20:27;;;;;;;2.30;0.90;;;;;;;16.38;52.57;96277.06;2062963;28;20203;-58
2023/03/22 09:21:31;;;;;;;3.10;1.08;;;;;;;16.09;51.43;96273.94;2065797;28;20662;-57
2023/03/22 09:22:32;;;;;;;4.50;1.20;;;;;;;16.36;52.09;96275.50;2064613;28;20195;-58
2023/03/22 09:23:36;;;;;;;2.20;1.00;;;;;;;16.57;51.82;96273.88;2063163;28;20229;-58
2023/03/22 09:24:38;;;;;;;1.95;0.80;;;;;;;17.09;51.01;96265.63;2064022;28;20720;-58
2023/03/22 09:25:42;;;;;;;2.38;0.90;;;;;;;16.88;50.22;96276.84;2066173;28;20233;-58
2023/03/22 09:26:44;;;;;;;1.85;1.20;;;;;;;17.16;49.91;96266.03;2062286;28;20241;-58
2023/03/22 09:27:45;;;;;;;5.80;1.30;;;;;;;17.26;49.72;96275.72;2062693;28;20324;-58
2023/03/22 09:28:47;;;;;;;4.70;1.58;;;;;;;17.33;49.23;96276.13;2062339;28;20206;-58
2023/03/22 09:29:50;;;;;;;7.88;1.08;;;;;;;17.59;49.21;96273.22;2070076;28;20306;-58
2023/03/22 09:30:52;;;;;;;6.05;1.23;;;;;;;17.56;48.88;96273.44;2070528;28;20594;-58
2023/03/22 09:31:53;;;;;;;3.55;1.15;;;;;;;17.07;49.08;96280.75;2063024;28;20265;-58
2023/03/22 09:32:55;;;;;;;3.20;1.10;;;;;;;17.00;49.58;96284.81;2063585;28;20709;-58
2023/03/22 09:33:57;;;;;;;1.45;0.77;;;;;;;16.72;50.35;96279.81;2061952;28;20597;-58
2023/03/22 09:34:58;;;;;;;3.40;1.35;;;;;;;17.42;49.59;96279.81;2060234;28;20322;-58
2023/03/22 09:36:00;;;;;;;1.80;0.90;;;;;;;17.73;47.93;96272.13;2062009;28;20191;-58
2023/03/22 09:37:02;;;;;;;2.47;1.20;;;;;;;18.42;47.54;96278.94;2065291;28;20209;-58
2023/03/22 09:38:05;;;;;;;5.00;1.17;;;;;;;19.62;45.88;96270.63;2065074;28;20642;-58
2023/03/22 09:39:08;;;;;;;2.63;1.38;;;;;;;20.23;44.67;96272.34;2061203;28;20207;-58
2023/03/22 09:40:11;;;;;;;4.45;1.30;;;;;;;20.09;44.32;96262.16;2060947;28;20226;-59
2023/03/22 09:41:20;;;;;;;3.85;1.25;;;;;;;19.96;44.40;96258.91;2061478;28;20262;-58
2023/03/22 09:42:31;;;;;;;3.65;1.17;;;;;;;19.47;45.01;96258.75;2064217;28;20215;-58
2023/03/22 09:43:37;;;;;;;1.92;0.90;;;;;;;19.48;45.52;96263.06;2064193;28;20206;-58
2023/03/22 09:44:41;;;;;;;8.43;1.08;;;;;;;19.77;44.55;96254.38;2063413;28;20226;-59
2023/03/22 09:45:47;;;;;;;4.03;1.33;;;;;;;18.49;46.42;96247.56;2062588;28;20226;-59
2023/03/22 09:47:01;;;;;;;3.85;1.30;;;;;;;18.38;46.42;96259.84;2066239;28;20199;-58
2023/03/22 09:48:13;;;;;;;8.02;0.85;;;;;;;18.62;46.39;96245.56;2062432;28;20429;-58
2023/03/22 09:49:23;;;;;;;2.40;1.00;;;;;;;19.08;45.81;96254.94;2066010;28;20515;-58
2023/03/22 09:50:28;;;;;;;3.08;1.10;;;;;;;19.58;45.12;96256.00;2063293;28;20238;-58
2023/03/22 09:51:38;;;;;;;3.83;0.90;;;;;;;20.50;43.50;96252.25;2066640;28;20206;-59
2023/03/22 09:52:40;;;;;;;2.45;1.10;;;;;;;21.31;42.36;96250.22;2061313;28;20195;-59
2023/03/22 09:53:41;;;;;;;2.60;1.20;;;;;;;21.91;40.37;96247.16;2064560;28;20250;-59
2023/03/22 09:54:45;;;;;;;3.25;1.50;;;;;;;22.27;40.04;96246.34;2062819;28;20218;-58
2023/03/22 09:56:21;;;;;;;4.70;1.80;;;;;;;22.33;40.30;96243.09;2065466;28;20191;-59
2023/03/22 09:57:33;;;;;;;2.67;1.20;;;;;;;20.78;42.12;96235.66;2056202;28;20241;-58
2023/03/22 09:58:41;;;;;;;2.15;1.00;;;;;;;20.17;42.99;96240.25;2063106;28;20199;-59
2023/03/22 09:59:57;;;;;;;2.63;1.02;;;;;;;20.27;43.52;96240.28;2061811;28;20233;-59
2023/03/22 10:01:11;;;;;;;4.15;1.27;;;;;;;20.67;42.63;96241.91;2060386;28;20650;-58
2023/03/22 10:02:21;;;;;;;3.40;1.65;;;;;;;20.31;42.71;96237.19;2064502;28;20278;-58
2023/03/22 10:03:41;;;;;;;2.50;1.25;;;;;;;20.94;41.79;96241.22;2064929;28;20678;-59
2023/03/22 10:05:02;;;;;;;3.85;1.17;;;;;;;21.41;40.88;96231.56;2064300;28;20224;-60
2023/03/22 10:06:10;;;;;;;2.50;1.13;;;;;;;22.97;39.29;96232.34;2050016;28;20264;-61
2023/03/22 10:07:45;;;;;;;2.03;0.80;;;;;;;21.88;40.51;96236.81;2062586;28;20407;-61
2023/03/22 10:09:26;;;;;;;3.25;1.00;;;;;;;23.00;38.71;96230.19;2064088;28;20197;-60
2023/03/22 10:10:28;;;;;;;1.63;0.80;;;;;;;24.16;37.30;96227.25;2065583;28;20237;-60
2023/03/22 10:11:45;;;;;;;3.45;0.88;;;;;;;24.36;36.95;96225.94;2064290;28;20203;-60
2023/03/22 10:13:05;;;;;;;2.17;1.08;;;;;;;24.34;37.09;96232.44;2064906;28;20724;-60
2023/03/22 10:14:16;;;;;;;3.47;1.13;;;;;;;-145.49;100.00;55703.94;2063052;28;20549;-60
2023/03/22 10:15:27;;;;;;;6.63;1.02;;;;;;;-145.49;100.00;55703.94;2064466;28;20230;-60
2023/03/22 10:16:33;;;;;;;1.58;0.70;;;;;;;-145.49;100.00;55703.94;2063163;28;20203;-60
2023/03/22 10:17:37;;;;;;;2.65;1.05;;;;;;;-145.49;100.00;55703.94;2062453;28;20206;-61
2023/03/22 10:18:47;;;;;;;2.20;0.80;;;;;;;24.34;37.09;96232.44;2066718;28;20239;-61
2023/03/22 10:19:52;;;;;;;2.35;0.90;;;;;;;26.76;33.26;96211.81;2063561;28;20257;-60
2023/03/22 10:21:01;;;;;;;1.95;0.70;;;;;;;26.56;33.41;96218.47;2061405;28;20241;-60
2023/03/22 10:22:05;;;;;;;1.80;0.80;;;;;;;26.16;34.73;96217.72;2062379;28;20202;-59
2023/03/22 10:23:15;;;;;;;1.55;0.90;;;;;;;26.20;34.32;96219.03;2066546;28;20286;-60
2023/03/22 10:24:25;;;;;;;1.90;0.90;;;;;;;24.75;35.10;96211.16;2063712;28;20210;-59
2023/03/22 10:25:34;;;;;;;3.70;1.10;;;;;;;25.39;34.72;96211.19;2064688;28;20239;-59
2023/03/22 10:26:40;;;;;;;1.63;0.70;;;;;;;25.62;34.36;96212.28;2062053;28;20207;-59
2023/03/22 10:27:42;;;;;;;1.73;0.80;;;;;;;25.96;33.60;96198.59;2060266;28;20250;-59
2023/03/22 10:28:52;;;;;;;2.38;0.93;;;;;;;25.43;34.43;96203.66;2062041;28;20222;-59
2023/03/22 10:30:17;;;;;;;2.25;1.00;;;;;;;24.52;35.21;96214.44;2060500;28;20809;-59
2023/03/22 10:31:20;;;;;;;1.55;0.80;;;;;;;23.79;35.69;96211.47;2062448;28;20210;-59
2023/03/22 10:32:37;;;;;;;1.10;0.55;;;;;;;22.56;34.05;96205.41;2063067;28;20247;-59
2023/03/22 10:34:01;;;;;;;1.45;0.70;;;;;;;21.39;35.83;96202.50;2063087;28;20239;-59
2023/03/22 10:35:02;;;;;;;8.43;0.70;;;;;;;21.13;36.95;96197.03;2061844;28;20290;-59
2023/03/22 10:36:11;;;;;;;1.45;0.70;;;;;;;20.91;36.46;96200.88;2062989;28;20211;-59
2023/03/22 10:37:16;;;;;;;2.10;0.70;;;;;;;20.46;37.25;96192.53;2062834;28;20672;-59
2023/03/22 10:38:24;;;;;;;2.20;0.70;;;;;;;20.27;37.43;96203.97;2063847;28;20282;-59
2023/03/22 10:39:37;;;;;;;1.40;0.70;;;;;;;19.75;38.73;96199.72;2063279;28;20210;-59
2023/03/22 10:40:41;;;;;;;2.40;0.70;;;;;;;19.55;40.27;96212.09;2062308;28;20214;-59
2023/03/22 10:41:45;;;;;;;1.10;0.70;;;;;;;19.52;39.88;96204.41;2063609;28;20551;-59
2023/03/22 10:42:54;;;;;;;2.50;0.70;;;;;;;19.84;39.33;96202.56;2065714;28;20254;-59
2023/03/22 10:43:59;;;;;;;1.40;0.80;;;;;;;19.90;39.32;96205.50;2064559;28;20204;-59
2023/03/22 10:45:06;;;;;;;2.47;0.90;;;;;;;20.02;39.27;96203.56;2063163;28;20240;-59
2023/03/22 10:46:17;;;;;;;1.10;0.60;;;;;;;20.10;38.08;96194.94;2061922;28;20199;-58
2023/03/22 10:47:32;;;;;;;2.05;0.90;;;;;;;20.13;37.82;96188.50;2061382;28;20203;-59
2023/03/22 10:48:38;;;;;;;3.28;0.70;;;;;;;20.50;37.22;96204.53;2065063;28;20204;-59
2023/03/22 10:49:45;;;;;;;2.35;0.80;;;;;;;21.11;37.35;96194.50;2069641;28;20223;-59
2023/03/22 10:50:46;;;;;;;1.30;0.60;;;;;;;20.56;37.19;96193.34;2073391;28;20701;-58
2023/03/22 10:51:53;;;;;;;1.42;0.70;;;;;;;20.78;36.63;96161.38;2073723;28;20200;-59
2023/03/22 10:53:21;;;;;;;1.58;0.73;;;;;;;21.16;36.25;96192.25;2070859;28;20211;-59
2023/03/22 10:54:23;;;;;;;2.00;0.63;;;;;;;20.88;35.97;96189.53;2069417;28;20822;-58
2023/03/22 10:55:26;;;;;;;1.25;0.60;;;;;;;21.00;36.14;96182.25;2072820;28;20695;-59
2023/03/22 10:56:28;;;;;;;2.50;0.90;;;;;;;21.04;36.85;96186.28;2069733;28;20215;-59
2023/03/22 10:57:29;;;;;;;2.03;0.70;;;;;;;20.62;36.86;96191.13;2069308;28;20577;-59
2023/03/22 10:58:33;;;;;;;1.73;0.70;;;;;;;20.31;37.15;96191.28;2070308;28;20565;-59
2023/03/22 10:59:54;;;;;;;1.45;0.68;;;;;;;19.92;37.99;96199.22;2070029;28;20227;-58
2023/03/22 11:00:58;;;;;;;1.00;0.60;;;;;;;20.25;37.92;96194.50;2070142;28;20213;-58
2023/03/22 11:02:00;;;;;;;1.45;0.85;;;;;;;20.28;37.86;96200.38;2071219;28;20202;-58
2023/03/22 11:03:05;;;;;;;1.85;0.90;;;;;;;20.42;37.99;96185.84;2072642;28;20210;-59
2023/03/22 11:04:13;;;;;;;1.25;0.63;;;;;;;20.03;38.65;96191.97;2072282;28;20194;-58
2023/03/22 11:05:21;;;;;;;1.10;0.68;;;;;;;19.79;39.12;96188.84;2070945;28;20258;-58
2023/03/22 11:06:28;;;;;;;1.48;0.80;;;;;;;19.72;38.81;96194.69;2070454;28;21232;-58
2023/03/22 11:07:34;;;;;;;3.38;0.80;;;;;;;19.78;38.80;96193.31;2071042;28;20210;-58
2023/03/22 11:08:45;;;;;;;2.38;0.80;;;;;;;20.65;38.33;96194.31;2070199;28;20644;-58
2023/03/22 11:09:47;;;;;;;2.60;0.80;;;;;;;20.89;38.31;96198.34;2069161;28;20250;-58
2023/03/22 11:10:51;;;;;;;1.65;0.75;;;;;;;20.97;36.88;96194.97;2072205;28;20577;-58
2023/03/22 11:11:56;;;;;;;1.10;0.70;;;;;;;20.87;36.91;96195.00;2071754;28;20202;-58
2023/03/22 11:13:06;;;;;;;1.60;0.70;;;;;;;21.90;35.62;96189.66;2070741;28;20199;-59
2023/03/22 11:14:36;;;;;;;1.30;0.70;;;;;;;22.31;35.49;96194.56;2068422;28;20199;-59
2023/03/22 11:15:39;;;;;;;2.33;0.80;;;;;;;22.13;35.88;96182.09;2059136;28;20237;-59
2023/03/22 11:16:43;;;;;;;1.30;0.70;;;;;;;21.33;36.77;96192.47;2064242;28;20233;-58
2023/03/22 11:17:44;;;;;;;2.45;0.90;;;;;;;20.64;37.13;96189.16;2065808;28;20244;-58
2023/03/22 11:18:46;;;;;;;1.30;0.85;;;;;;;19.88;38.49;96194.22;2062729;28;20309;-58
2023/03/22 11:19:56;;;;;;;1.85;0.82;;;;;;;19.19;39.80;96189.66;2061784;28;20255;-58
2023/03/22 11:21:10;;;;;;;2.33;0.82;;;;;;;18.58;39.22;96180.69;2060652;28;20208;-58
2023/03/22 11:22:35;;;;;;;2.60;0.90;;;;;;;18.63;40.14;96180.28;2061714;28;20831;-58
2023/03/22 11:23:41;;;;;;;7.05;1.20;;;;;;;18.32;39.81;96186.38;2061682;28;20204;-58
2023/03/22 11:24:45;;;;;;;1.85;0.82;;;;;;;18.75;39.89;96179.25;2062672;28;20772;-58
2023/03/22 11:25:49;;;;;;;2.47;0.80;;;;;;;18.79;38.36;96187.75;2060939;28;20196;-58
2023/03/22 11:27:05;;;;;;;1.25;0.70;;;;;;;19.09;38.22;96189.63;2060814;28;20203;-59
2023/03/22 11:28:15;;;;;;;2.65;0.80;;;;;;;19.27;38.31;96183.72;2062379;28;20203;-59
2023/03/22 11:29:18;;;;;;;3.40;0.60;;;;;;;19.56;38.46;96154.66;2064681;28;20665;-58
2023/03/22 11:30:23;;;;;;;5.25;0.80;;;;;;;20.21;37.44;96193.94;2065421;28;20203;-59
2023/03/22 11:31:24;;;;;;;3.70;0.80;;;;;;;20.32;37.05;96183.19;2066522;28;20724;-59
2023/03/22 11:32:29;;;;;;;1.40;0.80;;;;;;;20.57;36.56;96180.94;2063589;28;20769;-58
2023/03/22 11:33:32;;;;;;;1.30;0.68;;;;;;;20.33;37.04;96178.75;2063538;28;20626;-58
2023/03/22 11:34:33;;;;;;;2.80;0.90;;;;;;;20.66;37.63;96182.75;2061988;28;20231;-58
2023/03/22 11:35:36;;;;;;;1.40;0.63;;;;;;;20.58;37.02;96182.59;2067700;28;20234;-59
2023/03/22 11:36:55;;;;;;;2.38;0.80;;;;;;;20.63;37.29;96182.19;2061951;28;20196;-59
2023/03/22 11:37:57;;;;;;;1.20;0.70;;;;;;;20.53;37.82;96183.03;2061858;28;20747;-59
2023/03/22 11:39:06;;;;;;;1.30;0.70;;;;;;;20.52;36.84;96184.00;2065432;28;20228;-59
2023/03/22 11:40:15;;;;;;;1.10;0.70;;;;;;;20.34;37.13;96178.59;2063043;28;20328;-59
2023/03/22 11:41:24;;;;;;;1.10;0.60;;;;;;;20.70;37.18;96178.00;2065734;28;20203;-58
2023/03/22 11:42:26;;;;;;;1.10;0.60;;;;;;;20.83;36.91;96178.53;2059284;28;20254;-59
2023/03/22 11:43:41;;;;;;;2.28;0.80;;;;;;;20.98;36.95;96178.91;2064934;28;20201;-59
2023/03/22 11:44:43;;;;;;;1.30;0.60;;;;;;;21.11;37.49;96169.78;2058954;28;20723;-59
2023/03/22 11:45:48;;;;;;;2.28;0.90;;;;;;;21.36;37.08;96176.25;2058221;28;20223;-59
2023/03/22 11:47:01;;;;;;;3.78;0.90;;;;;;;21.57;37.19;96168.03;2061583;28;20255;-59
2023/03/22 11:48:12;;;;;;;1.75;0.68;;;;;;;21.93;36.32;96173.44;2064047;28;20225;-59
2023/03/22 11:49:16;;;;;;;4.07;0.75;;;;;;;22.60;35.63;96175.69;2066697;28;20208;-59
2023/03/22 11:50:38;;;;;;;1.92;0.85;;;;;;;22.23;35.07;96171.34;2062525;28;20621;-59
2023/03/22 11:51:41;;;;;;;4.25;0.60;;;;;;;21.96;36.35;96167.78;2062720;28;20201;-59
2023/03/22 11:52:47;;;;;;;1.48;0.75;;;;;;;21.71;36.12;96166.72;2061067;28;20239;-59
2023/03/22 11:53:48;;;;;;;1.60;0.80;;;;;;;21.31;36.81;96171.38;2061995;28;20229;-59
2023/03/22 11:54:51;;;;;;;1.20;0.60;;;;;;;20.86;37.14;96170.31;2063350;28;20230;-60
2023/03/22 11:55:56;;;;;;;2.65;0.90;;;;;;;20.30;38.00;96171.06;2065221;28;20326;-59
2023/03/22 11:57:02;;;;;;;1.30;0.60;;;;;;;19.45;37.50;96175.97;2062294;28;20236;-59
2023/03/22 11:58:05;;;;;;;1.45;0.70;;;;;;;18.95;37.50;96161.72;2063249;28;20210;-59
2023/03/22 11:59:12;;;;;;;6.97;0.70;;;;;;;18.93;38.86;96161.84;2063483;28;20205;-59
2023/03/22 12:00:26;;;;;;;2.25;0.70;;;;;;;18.51;38.68;96161.88;2065288;28;20227;-58
2023/03/22 12:01:37;;;;;;;1.95;0.80;;;;;;;18.63;39.02;96160.00;2063479;28;20673;-59
2023/03/22 12:02:47;;;;;;;1.90;0.88;;;;;;;18.59;38.97;96171.81;2066015;28;20250;-58
2023/03/22 12:03:55;;;;;;;1.60;0.80;;;;;;;18.74;38.70;96151.97;2063150;28;20760;-58
2023/03/22 12:05:10;;;;;;;1.95;0.80;;;;;;;18.70;39.53;96162.94;2061976;28;20235;-58
2023/03/22 12:06:39;;;;;;;1.60;0.75;;;;;;;18.17;38.82;96161.19;2064293;28;20194;-59
2023/03/22 12:07:41;;;;;;;2.42;0.80;;;;;;;18.23;39.29;96158.03;2060988;28;20207;-58
2023/03/22 12:08:57;;;;;;;1.70;0.80;;;;;;;18.18;39.76;96157.59;2063659;28;20199;-59
2023/03/22 12:10:09;;;;;;;3.30;0.80;;;;;;;17.85;39.86;96151.47;2062811;28;20263;-58
2023/03/22 12:11:19;;;;;;;2.10;0.90;;;;;;;18.14;40.17;96151.72;2068527;28;20202;-58
2023/03/22 12:12:26;;;;;;;2.55;0.70;;;;;;;17.92;38.78;96153.47;2063499;28;20200;-59
2023/03/22 12:13:42;;;;;;;2.00;0.75;;;;;;;17.74;38.69;96161.09;2062563;28;20767;-58
2023/03/22 12:15:01;;;;;;;1.20;0.80;;;;;;;17.67;39.34;96159.09;2062463;28;20269;-58
2023/03/22 12:16:06;;;;;;;2.55;0.70;;;;;;;17.46;39.71;96151.94;2058397;28;20215;-58
2023/03/22 12:17:44;;;;;;;1.40;0.70;;;;;;;17.37;40.08;96164.06;2058090;28;20701;-58
2023/03/22 12:18:56;;;;;;;2.75;0.70;;;;;;;17.43;41.11;96153.03;2063737;28;20204;-59
2023/03/22 12:20:11;;;;;;;1.60;0.70;;;;;;;17.83;41.12;96151.59;2060758;28;20234;-59